sensor_id;sensor_type;location;lat;lon;timestamp;pressure;altitude;pressure_sealevel;temperature
69420;BMP280;56612;52.030;113.524;2023-04-26T00:01:52;92101.53;;;4.24
69420;BMP280;56612;52.030;113.524;2023-04-26T00:04:56;92098.44;;;4.34
69420;BMP280;56612;52.030;113.524;2023-04-26T00:08:03;92107.44;;;4.51
69420;BMP280;56612;52.030;113.524;2023-04-26T00:11:07;92101.72;;;4.62
69420;BMP280;56612;52.030;113.524;2023-04-26T00:14:11;92105.84;;;4.69
69420;BMP280;56612;52.030;113.524;2023-04-26T00:17:15;92100.50;;;4.67
69420;BMP280;56612;52.030;113.524;2023-04-26T00:20:19;92104.09;;;4.80
69420;BMP280;56612;52.030;113.524;2023-04-26T00:23:22;92113.81;;;5.03
69420;BMP280;56612;52.030;113.524;2023-04-26T00:26:26;92107.34;;;5.10
69420;BMP280;56612;52.030;113.524;2023-04-26T00:29:30;92106.38;;;5.30
69420;BMP280;56612;52.030;113.524;2023-04-26T00:32:33;92110.06;;;5.51
69420;BMP280;56612;52.030;113.524;2023-04-26T00:35:40;92100.56;;;5.74
69420;BMP280;56612;52.030;113.524;2023-04-26T00:38:44;92104.91;;;5.97
69420;BMP280;56612;52.030;113.524;2023-04-26T00:41:50;92096.50;;;6.11
69420;BMP280;56612;52.030;113.524;2023-04-26T00:44:54;92096.16;;;6.32
69420;BMP280;56612;52.030;113.524;2023-04-26T00:48:01;92102.28;;;6.43
69420;BMP280;56612;52.030;113.524;2023-04-26T00:51:06;92101.84;;;6.59
69420;BMP280;56612;52.030;113.524;2023-04-26T00:54:11;92106.13;;;6.80
69420;BMP280;56612;52.030;113.524;2023-04-26T00:57:15;92089.81;;;7.06
69420;BMP280;56612;52.030;113.524;2023-04-26T01:00:19;92094.09;;;7.34
69420;BMP280;56612;52.030;113.524;2023-04-26T01:03:24;92089.66;;;7.52
69420;BMP280;56612;52.030;113.524;2023-04-26T01:06:33;92083.81;;;7.68
69420;BMP280;56612;52.030;113.524;2023-04-26T01:09:39;92084.63;;;7.85
69420;BMP280;56612;52.030;113.524;2023-04-26T01:12:43;92078.78;;;8.03
69420;BMP280;56612;52.030;113.524;2023-04-26T01:15:47;92080.94;;;8.22
69420;BMP280;56612;52.030;113.524;2023-04-26T01:18:52;92072.44;;;8.48
69420;BMP280;56612;52.030;113.524;2023-04-26T01:21:56;92069.94;;;8.83
69420;BMP280;56612;52.030;113.524;2023-04-26T01:25:03;92066.75;;;9.19
69420;BMP280;56612;52.030;113.524;2023-04-26T01:28:07;92064.81;;;9.52
69420;BMP280;56612;52.030;113.524;2023-04-26T01:31:11;92064.16;;;9.72
69420;BMP280;56612;52.030;113.524;2023-04-26T01:34:15;92063.50;;;9.94
69420;BMP280;56612;52.030;113.524;2023-04-26T01:37:20;92058.81;;;10.16
69420;BMP280;56612;52.030;113.524;2023-04-26T01:40:23;92067.34;;;10.72
69420;BMP280;56612;52.030;113.524;2023-04-26T01:43:27;92063.47;;;11.71
69420;BMP280;56612;52.030;113.524;2023-04-26T01:46:31;92066.09;;;12.52
69420;BMP280;56612;52.030;113.524;2023-04-26T01:49:35;92069.66;;;12.92
69420;BMP280;56612;52.030;113.524;2023-04-26T01:52:39;92065.13;;;12.78
69420;BMP280;56612;52.030;113.524;2023-04-26T01:55:43;92064.31;;;12.92
69420;BMP280;56612;52.030;113.524;2023-04-26T01:58:46;92064.06;;;13.59
69420;BMP280;56612;52.030;113.524;2023-04-26T02:01:50;92064.63;;;14.09
69420;BMP280;56612;52.030;113.524;2023-04-26T02:04:54;92056.38;;;14.54
69420;BMP280;56612;52.030;113.524;2023-04-26T02:08:00;92064.47;;;14.89
69420;BMP280;56612;52.030;113.524;2023-04-26T02:11:05;92049.53;;;15.27
69420;BMP280;56612;52.030;113.524;2023-04-26T02:14:10;92046.38;;;15.76
69420;BMP280;56612;52.030;113.524;2023-04-26T02:17:14;92050.44;;;16.29
69420;BMP280;56612;52.030;113.524;2023-04-26T02:20:19;92050.28;;;16.35
69420;BMP280;56612;52.030;113.524;2023-04-26T02:23:22;92044.31;;;16.80
69420;BMP280;56612;52.030;113.524;2023-04-26T02:26:27;92048.97;;;17.29
69420;BMP280;56612;52.030;113.524;2023-04-26T02:29:30;92040.13;;;17.75
69420;BMP280;56612;52.030;113.524;2023-04-26T02:32:46;92041.19;;;18.44
69420;BMP280;56612;52.030;113.524;2023-04-26T02:35:50;92034.81;;;18.70
69420;BMP280;56612;52.030;113.524;2023-04-26T02:38:54;92038.03;;;19.29
69420;BMP280;56612;52.030;113.524;2023-04-26T02:41:58;92032.66;;;19.63
69420;BMP280;56612;52.030;113.524;2023-04-26T02:45:03;92028.69;;;19.43
69420;BMP280;56612;52.030;113.524;2023-04-26T02:48:07;92027.91;;;19.80
69420;BMP280;56612;52.030;113.524;2023-04-26T02:51:11;92023.34;;;20.24
69420;BMP280;56612;52.030;113.524;2023-04-26T02:54:16;92025.16;;;20.91
69420;BMP280;56612;52.030;113.524;2023-04-26T02:57:20;92029.38;;;21.32
69420;BMP280;56612;52.030;113.524;2023-04-26T03:00:24;92018.88;;;21.09
69420;BMP280;56612;52.030;113.524;2023-04-26T03:03:29;92022.50;;;21.62
69420;BMP280;56612;52.030;113.524;2023-04-26T03:06:33;92014.59;;;22.51
69420;BMP280;56612;52.030;113.524;2023-04-26T03:09:37;92026.50;;;22.45
69420;BMP280;56612;52.030;113.524;2023-04-26T03:12:41;92016.69;;;21.55
69420;BMP280;56612;52.030;113.524;2023-04-26T03:15:45;92013.69;;;22.29
69420;BMP280;56612;52.030;113.524;2023-04-26T03:18:49;92019.16;;;23.43
69420;BMP280;56612;52.030;113.524;2023-04-26T03:21:54;92008.13;;;24.27
69420;BMP280;56612;52.030;113.524;2023-04-26T03:24:58;92003.94;;;24.96
69420;BMP280;56612;52.030;113.524;2023-04-26T03:28:03;92007.22;;;25.20
69420;BMP280;56612;52.030;113.524;2023-04-26T03:31:07;91995.31;;;25.87
69420;BMP280;56612;52.030;113.524;2023-04-26T03:34:11;92002.84;;;26.38
69420;BMP280;56612;52.030;113.524;2023-04-26T03:37:15;92006.94;;;26.77
69420;BMP280;56612;52.030;113.524;2023-04-26T03:40:26;92007.44;;;26.31
69420;BMP280;56612;52.030;113.524;2023-04-26T03:43:30;92004.84;;;25.88
69420;BMP280;56612;52.030;113.524;2023-04-26T03:46:34;92006.75;;;26.41
69420;BMP280;56612;52.030;113.524;2023-04-26T03:49:38;92007.59;;;27.16
69420;BMP280;56612;52.030;113.524;2023-04-26T03:52:43;92007.50;;;27.65
69420;BMP280;56612;52.030;113.524;2023-04-26T03:55:47;91997.09;;;27.57
69420;BMP280;56612;52.030;113.524;2023-04-26T03:58:50;91987.44;;;27.94
69420;BMP280;56612;52.030;113.524;2023-04-26T04:01:55;91991.50;;;28.66
69420;BMP280;56612;52.030;113.524;2023-04-26T04:04:58;91983.59;;;28.62
69420;BMP280;56612;52.030;113.524;2023-04-26T04:08:03;91985.91;;;28.15
69420;BMP280;56612;52.030;113.524;2023-04-26T04:11:06;91968.59;;;27.71
69420;BMP280;56612;52.030;113.524;2023-04-26T04:14:12;91980.47;;;27.59
69420;BMP280;56612;52.030;113.524;2023-04-26T04:17:15;91976.97;;;27.69
69420;BMP280;56612;52.030;113.524;2023-04-26T04:20:20;91975.00;;;25.73
69420;BMP280;56612;52.030;113.524;2023-04-26T04:23:25;91975.47;;;26.57
69420;BMP280;56612;52.030;113.524;2023-04-26T04:26:30;91970.81;;;26.75
69420;BMP280;56612;52.030;113.524;2023-04-26T04:29:34;91965.22;;;26.47
69420;BMP280;56612;52.030;113.524;2023-04-26T04:32:38;91963.31;;;26.05
69420;BMP280;56612;52.030;113.524;2023-04-26T04:35:43;91961.19;;;27.50
69420;BMP280;56612;52.030;113.524;2023-04-26T04:38:46;91943.69;;;28.10
69420;BMP280;56612;52.030;113.524;2023-04-26T04:41:53;91944.34;;;27.65
69420;BMP280;56612;52.030;113.524;2023-04-26T04:44:57;91937.91;;;26.75
69420;BMP280;56612;52.030;113.524;2023-04-26T04:48:03;91937.34;;;25.63
69420;BMP280;56612;52.030;113.524;2023-04-26T04:51:07;91942.75;;;24.25
69420;BMP280;56612;52.030;113.524;2023-04-26T04:54:12;91939.50;;;23.99
69420;BMP280;56612;52.030;113.524;2023-04-26T04:57:16;91928.41;;;24.59
69420;BMP280;56612;52.030;113.524;2023-04-26T05:00:22;91925.56;;;26.65
69420;BMP280;56612;52.030;113.524;2023-04-26T05:03:43;91925.03;;;28.29
69420;BMP280;56612;52.030;113.524;2023-04-26T05:06:47;91935.91;;;27.31
69420;BMP280;56612;52.030;113.524;2023-04-26T05:09:50;91929.66;;;28.14
69420;BMP280;56612;52.030;113.524;2023-04-26T05:12:54;91919.88;;;30.02
69420;BMP280;56612;52.030;113.524;2023-04-26T05:15:58;91928.06;;;29.37
69420;BMP280;56612;52.030;113.524;2023-04-26T05:19:02;91923.63;;;29.98
69420;BMP280;56612;52.030;113.524;2023-04-26T05:22:07;91908.13;;;31.05
69420;BMP280;56612;52.030;113.524;2023-04-26T05:25:11;91899.56;;;31.31
69420;BMP280;56612;52.030;113.524;2023-04-26T05:28:16;91899.91;;;29.77
69420;BMP280;56612;52.030;113.524;2023-04-26T05:31:56;91901.03;;;31.97
69420;BMP280;56612;52.030;113.524;2023-04-26T05:35:19;91899.88;;;31.72
69420;BMP280;56612;52.030;113.524;2023-04-26T05:38:23;91894.31;;;32.24
69420;BMP280;56612;52.030;113.524;2023-04-26T05:41:27;91888.50;;;31.00
69420;BMP280;56612;52.030;113.524;2023-04-26T05:44:31;91892.31;;;32.88
69420;BMP280;56612;52.030;113.524;2023-04-26T05:47:36;91893.59;;;32.89
69420;BMP280;56612;52.030;113.524;2023-04-26T05:50:40;91881.91;;;34.78
69420;BMP280;56612;52.030;113.524;2023-04-26T05:53:44;91877.94;;;33.90
69420;BMP280;56612;52.030;113.524;2023-04-26T05:56:48;91882.16;;;33.75
69420;BMP280;56612;52.030;113.524;2023-04-26T05:59:52;91883.63;;;33.26
69420;BMP280;56612;52.030;113.524;2023-04-26T06:02:56;91875.41;;;33.94
69420;BMP280;56612;52.030;113.524;2023-04-26T06:06:00;91877.03;;;35.49
69420;BMP280;56612;52.030;113.524;2023-04-26T06:09:04;91870.34;;;35.65
69420;BMP280;56612;52.030;113.524;2023-04-26T06:12:08;91868.88;;;35.60
69420;BMP280;56612;52.030;113.524;2023-04-26T06:15:15;91854.72;;;35.05
69420;BMP280;56612;52.030;113.524;2023-04-26T06:18:19;91859.56;;;33.79
69420;BMP280;56612;52.030;113.524;2023-04-26T06:21:23;91850.91;;;33.49
69420;BMP280;56612;52.030;113.524;2023-04-26T06:24:27;91847.59;;;35.32
69420;BMP280;56612;52.030;113.524;2023-04-26T06:27:31;91854.31;;;36.82
69420;BMP280;56612;52.030;113.524;2023-04-26T06:30:35;91856.03;;;37.03
69420;BMP280;56612;52.030;113.524;2023-04-26T06:33:39;91850.59;;;36.18
69420;BMP280;56612;52.030;113.524;2023-04-26T06:36:44;91840.69;;;35.51
69420;BMP280;56612;52.030;113.524;2023-04-26T06:39:48;91846.44;;;34.39
69420;BMP280;56612;52.030;113.524;2023-04-26T06:42:52;91843.50;;;32.78
69420;BMP280;56612;52.030;113.524;2023-04-26T06:46:05;91866.59;;;31.59
69420;BMP280;56612;52.030;113.524;2023-04-26T06:49:10;91849.41;;;30.83
69420;BMP280;56612;52.030;113.524;2023-04-26T06:52:14;91835.44;;;30.07
69420;BMP280;56612;52.030;113.524;2023-04-26T06:55:18;91850.72;;;32.74
69420;BMP280;56612;52.030;113.524;2023-04-26T06:58:22;91836.41;;;34.42
69420;BMP280;56612;52.030;113.524;2023-04-26T07:01:27;91829.69;;;33.67
69420;BMP280;56612;52.030;113.524;2023-04-26T07:04:31;91833.00;;;33.48
69420;BMP280;56612;52.030;113.524;2023-04-26T07:07:36;91826.59;;;33.43
69420;BMP280;56612;52.030;113.524;2023-04-26T07:10:40;91834.09;;;32.46
69420;BMP280;56612;52.030;113.524;2023-04-26T07:13:44;91830.56;;;30.85
69420;BMP280;56612;52.030;113.524;2023-04-26T07:16:48;91828.50;;;30.23
69420;BMP280;56612;52.030;113.524;2023-04-26T07:19:53;91830.94;;;30.42
69420;BMP280;56612;52.030;113.524;2023-04-26T07:22:58;91815.13;;;29.63
69420;BMP280;56612;52.030;113.524;2023-04-26T07:26:02;91828.84;;;27.14
69420;BMP280;56612;52.030;113.524;2023-04-26T07:29:06;91823.81;;;28.75
69420;BMP280;56612;52.030;113.524;2023-04-26T07:32:11;91820.94;;;29.59
69420;BMP280;56612;52.030;113.524;2023-04-26T07:35:15;91817.53;;;28.51
69420;BMP280;56612;52.030;113.524;2023-04-26T07:38:19;91816.81;;;27.00
69420;BMP280;56612;52.030;113.524;2023-04-26T07:41:22;91824.03;;;27.59
69420;BMP280;56612;52.030;113.524;2023-04-26T07:44:26;91819.66;;;27.53
69420;BMP280;56612;52.030;113.524;2023-04-26T07:47:30;91814.06;;;27.00
69420;BMP280;56612;52.030;113.524;2023-04-26T07:50:34;91815.97;;;26.65
69420;BMP280;56612;52.030;113.524;2023-04-26T07:53:38;91820.13;;;27.56
69420;BMP280;56612;52.030;113.524;2023-04-26T07:56:42;91807.13;;;27.65
69420;BMP280;56612;52.030;113.524;2023-04-26T07:59:46;91811.69;;;28.72
69420;BMP280;56612;52.030;113.524;2023-04-26T08:02:49;91813.66;;;30.11
69420;BMP280;56612;52.030;113.524;2023-04-26T08:05:54;91808.63;;;30.38
69420;BMP280;56612;52.030;113.524;2023-04-26T08:08:58;91814.63;;;31.01
69420;BMP280;56612;52.030;113.524;2023-04-26T08:12:03;91824.72;;;32.43
69420;BMP280;56612;52.030;113.524;2023-04-26T08:15:07;91811.28;;;33.50
69420;BMP280;56612;52.030;113.524;2023-04-26T08:18:12;91815.69;;;32.08
69420;BMP280;56612;52.030;113.524;2023-04-26T08:21:15;91819.50;;;30.31
69420;BMP280;56612;52.030;113.524;2023-04-26T08:24:19;91809.25;;;29.91
69420;BMP280;56612;52.030;113.524;2023-04-26T08:27:22;91813.63;;;30.89
69420;BMP280;56612;52.030;113.524;2023-04-26T08:30:26;91815.38;;;30.93
69420;BMP280;56612;52.030;113.524;2023-04-26T08:33:30;91809.94;;;31.30
69420;BMP280;56612;52.030;113.524;2023-04-26T08:36:37;91812.34;;;30.88
69420;BMP280;56612;52.030;113.524;2023-04-26T08:39:40;91804.91;;;29.61
69420;BMP280;56612;52.030;113.524;2023-04-26T08:42:44;91810.69;;;28.84
69420;BMP280;56612;52.030;113.524;2023-04-26T08:45:49;91810.66;;;29.01
69420;BMP280;56612;52.030;113.524;2023-04-26T08:49:12;91802.97;;;28.35
69420;BMP280;56612;52.030;113.524;2023-04-26T08:52:20;91809.13;;;28.10
69420;BMP280;56612;52.030;113.524;2023-04-26T08:55:26;91815.72;;;28.13
69420;BMP280;56612;52.030;113.524;2023-04-26T08:58:29;91806.16;;;28.98
69420;BMP280;56612;52.030;113.524;2023-04-26T09:01:38;91803.03;;;29.51
69420;BMP280;56612;52.030;113.524;2023-04-26T09:04:43;91815.41;;;30.39
69420;BMP280;56612;52.030;113.524;2023-04-26T09:07:49;91819.88;;;31.63
69420;BMP280;56612;52.030;113.524;2023-04-26T09:10:52;91808.63;;;31.81
69420;BMP280;56612;52.030;113.524;2023-04-26T09:13:56;91803.88;;;32.44
69420;BMP280;56612;52.030;113.524;2023-04-26T09:17:00;91802.75;;;32.98
69420;BMP280;56612;52.030;113.524;2023-04-26T09:20:24;91804.38;;;33.97
69420;BMP280;56612;52.030;113.524;2023-04-26T09:23:29;91799.56;;;33.50
69420;BMP280;56612;52.030;113.524;2023-04-26T09:26:34;91803.03;;;31.37
69420;BMP280;56612;52.030;113.524;2023-04-26T09:29:38;91801.34;;;30.10
69420;BMP280;56612;52.030;113.524;2023-04-26T09:35:48;91812.72;;;26.90
69420;BMP280;56612;52.030;113.524;2023-04-26T09:38:52;91810.44;;;28.36
69420;BMP280;56612;52.030;113.524;2023-04-26T09:41:56;91819.50;;;30.55
69420;BMP280;56612;52.030;113.524;2023-04-26T09:45:05;91820.44;;;32.16
69420;BMP280;56612;52.030;113.524;2023-04-26T09:48:17;91817.44;;;31.53
69420;BMP280;56612;52.030;113.524;2023-04-26T09:51:24;91816.06;;;31.45
69420;BMP280;56612;52.030;113.524;2023-04-26T09:54:44;91818.06;;;32.62
69420;BMP280;56612;52.030;113.524;2023-04-26T09:57:48;91817.59;;;32.59
69420;BMP280;56612;52.030;113.524;2023-04-26T10:00:52;91814.16;;;32.52
69420;BMP280;56612;52.030;113.524;2023-04-26T10:03:56;91816.19;;;32.17
69420;BMP280;56612;52.030;113.524;2023-04-26T10:07:01;91815.41;;;31.60
69420;BMP280;56612;52.030;113.524;2023-04-26T10:10:04;91815.28;;;30.86
69420;BMP280;56612;52.030;113.524;2023-04-26T10:13:10;91822.22;;;28.61
69420;BMP280;56612;52.030;113.524;2023-04-26T10:16:15;91826.16;;;26.94
69420;BMP280;56612;52.030;113.524;2023-04-26T10:19:19;91827.97;;;26.70
69420;BMP280;56612;52.030;113.524;2023-04-26T10:22:28;91835.16;;;26.65
69420;BMP280;56612;52.030;113.524;2023-04-26T10:25:37;91834.50;;;25.47
69420;BMP280;56612;52.030;113.524;2023-04-26T10:35:12;91832.47;;;22.47
69420;BMP280;56612;52.030;113.524;2023-04-26T10:38:16;91831.06;;;21.57
69420;BMP280;56612;52.030;113.524;2023-04-26T10:41:35;91821.81;;;21.12
69420;BMP280;56612;52.030;113.524;2023-04-26T10:44:40;91837.94;;;20.45
69420;BMP280;56612;52.030;113.524;2023-04-26T10:47:44;91836.31;;;20.06
69420;BMP280;56612;52.030;113.524;2023-04-26T10:54:03;91837.47;;;19.00
69420;BMP280;56612;52.030;113.524;2023-04-26T10:57:07;91832.47;;;18.73
69420;BMP280;56612;52.030;113.524;2023-04-26T11:03:16;91837.66;;;17.89
69420;BMP280;56612;52.030;113.524;2023-04-26T11:06:22;91835.53;;;17.73
69420;BMP280;56612;52.030;113.524;2023-04-26T11:09:47;91842.00;;;17.61
69420;BMP280;56612;52.030;113.524;2023-04-26T11:13:02;91854.50;;;17.31
69420;BMP280;56612;52.030;113.524;2023-04-26T11:16:16;91856.81;;;17.02
69420;BMP280;56612;52.030;113.524;2023-04-26T11:19:20;91866.72;;;16.66
69420;BMP280;56612;52.030;113.524;2023-04-26T11:22:24;91854.56;;;16.44
69420;BMP280;56612;52.030;113.524;2023-04-26T11:25:28;91864.03;;;16.43
69420;BMP280;56612;52.030;113.524;2023-04-26T11:28:41;91866.78;;;16.18
69420;BMP280;56612;52.030;113.524;2023-04-26T11:31:51;91872.34;;;16.12
69420;BMP280;56612;52.030;113.524;2023-04-26T11:34:59;91869.56;;;15.92
69420;BMP280;56612;52.030;113.524;2023-04-26T11:38:04;91874.16;;;15.70
69420;BMP280;56612;52.030;113.524;2023-04-26T11:41:07;91872.72;;;15.48
69420;BMP280;56612;52.030;113.524;2023-04-26T11:44:16;91879.22;;;15.31
69420;BMP280;56612;52.030;113.524;2023-04-26T11:47:20;91878.16;;;15.20
69420;BMP280;56612;52.030;113.524;2023-04-26T11:50:26;91883.94;;;15.03
69420;BMP280;56612;52.030;113.524;2023-04-26T11:53:38;91878.13;;;14.93
69420;BMP280;56612;52.030;113.524;2023-04-26T11:56:42;91895.06;;;14.87
69420;BMP280;56612;52.030;113.524;2023-04-26T11:59:46;91892.53;;;14.81
69420;BMP280;56612;52.030;113.524;2023-04-26T12:02:50;91905.44;;;14.74
69420;BMP280;56612;52.030;113.524;2023-04-26T12:05:54;91908.13;;;14.74
69420;BMP280;56612;52.030;113.524;2023-04-26T12:09:01;91908.88;;;14.71
69420;BMP280;56612;52.030;113.524;2023-04-26T12:12:07;91912.97;;;14.68
69420;BMP280;56612;52.030;113.524;2023-04-26T12:15:11;91919.72;;;14.67
69420;BMP280;56612;52.030;113.524;2023-04-26T12:18:16;91924.66;;;14.54
69420;BMP280;56612;52.030;113.524;2023-04-26T12:21:20;91920.03;;;14.53
69420;BMP280;56612;52.030;113.524;2023-04-26T12:24:26;91918.84;;;14.44
69420;BMP280;56612;52.030;113.524;2023-04-26T12:27:32;91929.03;;;14.39
69420;BMP280;56612;52.030;113.524;2023-04-26T12:30:37;91928.41;;;14.36
69420;BMP280;56612;52.030;113.524;2023-04-26T12:33:41;91933.31;;;14.28
69420;BMP280;56612;52.030;113.524;2023-04-26T12:36:44;91941.41;;;14.24
69420;BMP280;56612;52.030;113.524;2023-04-26T12:39:49;91932.84;;;14.17
69420;BMP280;56612;52.030;113.524;2023-04-26T12:42:53;91929.09;;;14.02
69420;BMP280;56612;52.030;113.524;2023-04-26T12:45:57;91940.50;;;14.02
69420;BMP280;56612;52.030;113.524;2023-04-26T12:49:00;91938.63;;;13.95
69420;BMP280;56612;52.030;113.524;2023-04-26T12:52:04;91939.59;;;13.79
69420;BMP280;56612;52.030;113.524;2023-04-26T12:55:12;91941.28;;;13.58
69420;BMP280;56612;52.030;113.524;2023-04-26T12:58:16;91937.53;;;13.41
69420;BMP280;56612;52.030;113.524;2023-04-26T13:01:19;91939.81;;;13.24
69420;BMP280;56612;52.030;113.524;2023-04-26T13:04:23;91937.31;;;13.14
69420;BMP280;56612;52.030;113.524;2023-04-26T13:07:26;91940.09;;;13.06
69420;BMP280;56612;52.030;113.524;2023-04-26T13:10:29;91937.59;;;12.93
69420;BMP280;56612;52.030;113.524;2023-04-26T13:13:34;91948.44;;;12.85
69420;BMP280;56612;52.030;113.524;2023-04-26T13:16:45;91960.00;;;12.74
69420;BMP280;56612;52.030;113.524;2023-04-26T13:19:48;91981.53;;;12.66
69420;BMP280;56612;52.030;113.524;2023-04-26T13:22:51;91981.03;;;12.53
69420;BMP280;56612;52.030;113.524;2023-04-26T13:25:54;91984.44;;;12.47
69420;BMP280;56612;52.030;113.524;2023-04-26T13:28:58;91999.94;;;12.39
69420;BMP280;56612;52.030;113.524;2023-04-26T13:32:01;92000.06;;;12.28
69420;BMP280;56612;52.030;113.524;2023-04-26T13:35:05;92001.50;;;12.17
69420;BMP280;56612;52.030;113.524;2023-04-26T13:38:09;92005.63;;;12.06
69420;BMP280;56612;52.030;113.524;2023-04-26T13:41:15;92002.38;;;11.98
69420;BMP280;56612;52.030;113.524;2023-04-26T13:44:19;92001.72;;;11.93
69420;BMP280;56612;52.030;113.524;2023-04-26T13:47:23;92003.09;;;11.92
69420;BMP280;56612;52.030;113.524;2023-04-26T13:50:27;91989.19;;;11.73
69420;BMP280;56612;52.030;113.524;2023-04-26T13:53:31;91995.94;;;11.70
69420;BMP280;56612;52.030;113.524;2023-04-26T13:56:34;91974.72;;;11.48
69420;BMP280;56612;52.030;113.524;2023-04-26T13:59:37;91998.06;;;11.51
69420;BMP280;56612;52.030;113.524;2023-04-26T14:02:41;91996.81;;;11.46
69420;BMP280;56612;52.030;113.524;2023-04-26T14:05:45;91999.53;;;11.38
69420;BMP280;56612;52.030;113.524;2023-04-26T14:08:48;92008.25;;;11.31
69420;BMP280;56612;52.030;113.524;2023-04-26T14:11:52;92019.69;;;11.25
69420;BMP280;56612;52.030;113.524;2023-04-26T14:15:09;92027.09;;;11.16
69420;BMP280;56612;52.030;113.524;2023-04-26T14:18:15;92025.06;;;11.13
69420;BMP280;56612;52.030;113.524;2023-04-26T14:21:20;92020.44;;;11.09
69420;BMP280;56612;52.030;113.524;2023-04-26T14:24:24;92027.81;;;11.05
69420;BMP280;56612;52.030;113.524;2023-04-26T14:27:28;92028.50;;;10.99
69420;BMP280;56612;52.030;113.524;2023-04-26T14:30:32;92034.56;;;10.94
69420;BMP280;56612;52.030;113.524;2023-04-26T14:33:36;92049.25;;;10.90
69420;BMP280;56612;52.030;113.524;2023-04-26T14:36:40;92049.97;;;10.83
69420;BMP280;56612;52.030;113.524;2023-04-26T14:39:44;92055.31;;;10.77
69420;BMP280;56612;52.030;113.524;2023-04-26T14:42:47;92059.31;;;10.72
69420;BMP280;56612;52.030;113.524;2023-04-26T14:45:50;92056.03;;;10.65
69420;BMP280;56612;52.030;113.524;2023-04-26T14:48:53;92058.72;;;10.57
69420;BMP280;56612;52.030;113.524;2023-04-26T14:51:57;92046.72;;;10.54
69420;BMP280;56612;52.030;113.524;2023-04-26T14:55:03;92049.38;;;10.50
69420;BMP280;56612;52.030;113.524;2023-04-26T14:58:07;92054.06;;;10.45
69420;BMP280;56612;52.030;113.524;2023-04-26T15:01:11;92043.44;;;10.35
69420;BMP280;56612;52.030;113.524;2023-04-26T15:04:14;92050.75;;;10.29
69420;BMP280;56612;52.030;113.524;2023-04-26T15:07:17;92056.13;;;10.22
69420;BMP280;56612;52.030;113.524;2023-04-26T15:10:34;92056.81;;;10.21
69420;BMP280;56612;52.030;113.524;2023-04-26T15:13:38;92060.81;;;10.16
69420;BMP280;56612;52.030;113.524;2023-04-26T15:16:41;92066.16;;;10.10
69420;BMP280;56612;52.030;113.524;2023-04-26T15:19:46;92074.84;;;10.00
69420;BMP280;56612;52.030;113.524;2023-04-26T15:22:49;92082.16;;;9.96
69420;BMP280;56612;52.030;113.524;2023-04-26T15:25:53;92085.50;;;9.98
69420;BMP280;56612;52.030;113.524;2023-04-26T15:28:57;92092.16;;;9.99
69420;BMP280;56612;52.030;113.524;2023-04-26T15:32:01;92092.19;;;9.89
69420;BMP280;56612;52.030;113.524;2023-04-26T15:35:06;92094.84;;;9.89
69420;BMP280;56612;52.030;113.524;2023-04-26T15:38:11;92099.50;;;9.88
69420;BMP280;56612;52.030;113.524;2023-04-26T15:41:14;92101.50;;;9.88
69420;BMP280;56612;52.030;113.524;2023-04-26T15:44:18;92116.88;;;9.85
69420;BMP280;56612;52.030;113.524;2023-04-26T15:47:22;92116.19;;;9.85
69420;BMP280;56612;52.030;113.524;2023-04-26T15:50:26;92125.53;;;9.84
69420;BMP280;56612;52.030;113.524;2023-04-26T15:53:29;92132.19;;;9.83
69420;BMP280;56612;52.030;113.524;2023-04-26T15:56:33;92128.84;;;9.78
69420;BMP280;56612;52.030;113.524;2023-04-26T15:59:38;92126.84;;;9.73
69420;BMP280;56612;52.030;113.524;2023-04-26T16:02:41;92136.84;;;9.68
69420;BMP280;56612;52.030;113.524;2023-04-26T16:05:46;92142.81;;;9.56
69420;BMP280;56612;52.030;113.524;2023-04-26T16:08:50;92146.13;;;9.55
69420;BMP280;56612;52.030;113.524;2023-04-26T16:11:53;92147.47;;;9.52
69420;BMP280;56612;52.030;113.524;2023-04-26T16:14:57;92147.47;;;9.48
69420;BMP280;56612;52.030;113.524;2023-04-26T16:18:00;92150.75;;;9.42
69420;BMP280;56612;52.030;113.524;2023-04-26T16:21:05;92157.44;;;9.39
69420;BMP280;56612;52.030;113.524;2023-04-26T16:24:11;92156.75;;;9.37
69420;BMP280;56612;52.030;113.524;2023-04-26T16:27:14;92162.72;;;9.33
69420;BMP280;56612;52.030;113.524;2023-04-26T16:30:18;92166.69;;;9.24
69420;BMP280;56612;52.030;113.524;2023-04-26T16:33:22;92160.69;;;9.19
69420;BMP280;56612;52.030;113.524;2023-04-26T16:36:26;92160.03;;;9.19
69420;BMP280;56612;52.030;113.524;2023-04-26T16:39:30;92165.31;;;9.13
69420;BMP280;56612;52.030;113.524;2023-04-26T16:42:35;92169.28;;;9.06
69420;BMP280;56612;52.030;113.524;2023-04-26T16:45:39;92167.94;;;9.03
69420;BMP280;56612;52.030;113.524;2023-04-26T16:48:43;92173.28;;;9.07
69420;BMP280;56612;52.030;113.524;2023-04-26T16:51:47;92170.59;;;9.01
69420;BMP280;56612;52.030;113.524;2023-04-26T16:54:56;92172.59;;;9.00
69420;BMP280;56612;52.030;113.524;2023-04-26T16:58:00;92169.94;;;9.04
69420;BMP280;56612;52.030;113.524;2023-04-26T17:01:03;92174.59;;;9.00
69420;BMP280;56612;52.030;113.524;2023-04-26T17:04:07;92176.56;;;8.97
69420;BMP280;56612;52.030;113.524;2023-04-26T17:07:14;92178.53;;;8.92
69420;BMP280;56612;52.030;113.524;2023-04-26T17:10:18;92187.88;;;8.96
69420;BMP280;56612;52.030;113.524;2023-04-26T17:13:22;92175.22;;;8.92
69420;BMP280;56612;52.030;113.524;2023-04-26T17:16:26;92187.81;;;8.85
69420;BMP280;56612;52.030;113.524;2023-04-26T17:19:29;92190.56;;;8.96
69420;BMP280;56612;52.030;113.524;2023-04-26T17:22:33;92192.53;;;8.93
69420;BMP280;56612;52.030;113.524;2023-04-26T17:25:36;92195.19;;;8.93
69420;BMP280;56612;52.030;113.524;2023-04-26T17:28:39;92207.16;;;8.88
69420;BMP280;56612;52.030;113.524;2023-04-26T17:31:43;92213.09;;;8.84
69420;BMP280;56612;52.030;113.524;2023-04-26T17:34:47;92209.84;;;8.90